Time;durP1;ratioP1;P1;durP2;ratioP2;P2;SDS_P1;SDS_P2;PMS_P1;PMS_P2;Temp;Humidity;BMP_temperature;BMP_pressure;BME280_temperature;BME280_humidity;BME280_pressure;Samples;Min_cycle;Max_cycle;Signal;HPM_P1;HPM_P2
2023/05/06 00:02:30;;;;;;;27.20;16.50;;;9.60;99.90;;;;;;7308850;32;20524;-56
2023/05/06 00:06:32;;;;;;;26.00;17.10;;;9.50;99.90;;;;;;7306432;32;20160;-56
2023/05/06 00:10:34;;;;;;;28.27;16.87;;;9.50;99.90;;;;;;7298528;32;20134;-56
2023/05/06 00:14:35;;;;;;;31.67;17.20;;;9.50;99.90;;;;;;7310162;32;20454;-56
2023/05/06 00:18:37;;;;;;;27.25;17.27;;;9.50;99.90;;;;;;7306182;32;20119;-55
2023/05/06 00:22:39;;;;;;;23.75;15.95;;;9.50;99.90;;;;;;7313592;32;20183;-56
2023/05/06 00:26:40;;;;;;;27.95;18.02;;;9.40;99.90;;;;;;7307146;32;20223;-56
2023/05/06 00:30:42;;;;;;;27.83;18.08;;;9.40;99.90;;;;;;7311134;32;20715;-57
2023/05/06 00:34:44;;;;;;;30.92;18.42;;;9.40;99.90;;;;;;7312456;32;20261;-56
2023/05/06 00:38:45;;;;;;;27.37;16.85;;;9.40;99.90;;;;;;7303025;32;20116;-56
2023/05/06 00:42:47;;;;;;;31.45;16.20;;;9.30;99.90;;;;;;7310345;32;20245;-56
2023/05/06 00:46:48;;;;;;;28.38;16.85;;;9.20;99.90;;;;;;7308892;32;20249;-56
2023/05/06 00:50:50;;;;;;;28.50;16.73;;;9.20;99.90;;;;;;7308939;32;20279;-56
2023/05/06 00:54:52;;;;;;;25.45;16.05;;;9.10;99.90;;;;;;7309522;32;20167;-56
2023/05/06 00:58:54;;;;;;;35.00;17.83;;;9.00;99.90;;;;;;7312236;32;20238;-56
2023/05/06 01:02:56;;;;;;;30.98;17.67;;;9.00;99.90;;;;;;7309797;32;20140;-56
2023/05/06 01:07:06;;;;;;;33.58;18.75;;;9.00;99.90;;;;;;7308592;32;20315;-56
2023/05/06 01:11:18;;;;;;;30.15;18.20;;;9.00;99.90;;;;;;7309082;32;20108;-56
2023/05/06 01:15:33;;;;;;;32.55;18.42;;;8.90;99.90;;;;;;7306007;32;20120;-56
2023/05/06 01:19:40;;;;;;;25.45;15.73;;;8.90;99.90;;;;;;7310852;32;20190;-55
2023/05/06 01:23:52;;;;;;;35.00;18.80;;;8.80;99.90;;;;;;7301135;32;20502;-56
2023/05/06 01:27:54;;;;;;;42.35;20.75;;;8.80;99.90;;;;;;7304935;32;20120;-57
2023/05/06 01:32:03;;;;;;;39.10;20.08;;;8.80;99.90;;;;;;7310375;32;20287;-56
2023/05/06 01:36:24;;;;;;;36.15;20.20;;;8.80;99.90;;;;;;7307696;32;20095;-55
2023/05/06 01:40:29;;;;;;;40.88;20.83;;;8.70;99.90;;;;;;7306777;32;20191;-56
2023/05/06 01:44:32;;;;;;;45.17;20.37;;;8.70;99.90;;;;;;7310710;32;20142;-55
2023/05/06 01:48:37;;;;;;;34.05;18.65;;;8.60;99.90;;;;;;7313577;32;20130;-55
2023/05/06 01:52:38;;;;;;;34.03;18.52;;;8.60;99.90;;;;;;7312630;32;20281;-56
2023/05/06 01:56:40;;;;;;;36.38;20.23;;;8.60;99.90;;;;;;7314456;32;20136;-55
2023/05/06 02:00:42;;;;;;;40.35;20.67;;;8.60;99.90;;;;;;7313699;32;20298;-55
2023/05/06 02:04:44;;;;;;;38.75;20.73;;;8.60;99.90;;;;;;7316761;32;20306;-55
2023/05/06 02:08:47;;;;;;;32.85;18.35;;;8.50;99.90;;;;;;7314756;32;20166;-54
2023/05/06 02:12:49;;;;;;;31.77;17.92;;;8.50;99.90;;;;;;7306961;32;20278;-56
2023/05/06 02:16:51;;;;;;;32.80;19.05;;;8.40;99.90;;;;;;7309548;32;20132;-55
2023/05/06 02:20:52;;;;;;;30.50;17.85;;;8.40;99.90;;;;;;7301947;32;20133;-55
2023/05/06 02:24:54;;;;;;;26.73;17.15;;;8.40;99.90;;;;;;7303743;32;20222;-55
2023/05/06 02:28:55;;;;;;;31.33;16.65;;;8.20;99.90;;;;;;7312733;32;20175;-55
2023/05/06 02:32:57;;;;;;;26.40;15.65;;;8.20;99.90;;;;;;7312890;32;20169;-54
2023/05/06 02:36:59;;;;;;;35.78;16.70;;;8.10;99.90;;;;;;7312055;32;20267;-54
2023/05/06 02:41:01;;;;;;;34.42;17.20;;;8.10;99.90;;;;;;7312516;32;20229;-55
2023/05/06 02:45:03;;;;;;;30.62;16.67;;;8.00;99.90;;;;;;7310229;32;20215;-55
2023/05/06 02:49:04;;;;;;;31.50;17.23;;;8.00;99.90;;;;;;7309179;32;20183;-55
2023/05/06 02:53:07;;;;;;;37.92;17.77;;;8.00;99.90;;;;;;7323245;32;20181;-58
2023/05/06 02:57:09;;;;;;;32.95;17.52;;;8.00;99.90;;;;;;7312204;32;20261;-56
2023/05/06 03:01:11;;;;;;;33.22;16.92;;;7.90;99.90;;;;;;7313061;32;20314;-55
2023/05/06 03:05:12;;;;;;;32.88;17.77;;;7.90;99.90;;;;;;7309326;32;20221;-54
2023/05/06 03:09:14;;;;;;;33.88;17.50;;;7.90;99.90;;;;;;7313761;32;20641;-55
2023/05/06 03:13:16;;;;;;;30.45;16.65;;;7.80;99.90;;;;;;7309715;32;20138;-55
2023/05/06 03:17:18;;;;;;;29.10;15.73;;;7.70;99.90;;;;;;7311490;32;20279;-55
2023/05/06 03:21:19;;;;;;;25.55;15.68;;;7.70;99.90;;;;;;7301951;32;20458;-55
2023/05/06 03:25:21;;;;;;;27.87;17.52;;;7.70;99.90;;;;;;7315369;32;20127;-55
2023/05/06 03:29:23;;;;;;;27.35;15.18;;;7.70;99.90;;;;;;7304328;32;20116;-55
2023/05/06 03:33:25;;;;;;;30.67;16.85;;;7.60;99.90;;;;;;7298972;32;20137;-55
2023/05/06 03:37:28;;;;;;;27.33;16.75;;;7.60;99.90;;;;;;7313944;32;20504;-56
2023/05/06 03:41:29;;;;;;;28.77;16.15;;;7.60;99.90;;;;;;7319113;32;20198;-55
2023/05/06 03:45:31;;;;;;;26.60;15.70;;;7.60;99.90;;;;;;7307890;32;20245;-55
2023/05/06 03:49:33;;;;;;;26.10;15.65;;;7.50;99.90;;;;;;7311910;32;20133;-55
2023/05/06 03:53:34;;;;;;;26.98;15.32;;;7.50;99.90;;;;;;7305032;32;20385;-55
2023/05/06 03:57:36;;;;;;;28.30;16.15;;;7.40;99.90;;;;;;7307685;32;20104;-55
2023/05/06 04:01:38;;;;;;;26.52;14.68;;;7.40;99.90;;;;;;7302140;32;20104;-55
2023/05/06 04:05:39;;;;;;;29.37;16.35;;;7.40;99.90;;;;;;7311425;32;20264;-55
2023/05/06 04:09:41;;;;;;;26.08;15.23;;;7.40;99.90;;;;;;7312710;32;20124;-55
2023/05/06 04:13:43;;;;;;;33.97;16.45;;;7.40;99.90;;;;;;7305800;32;20163;-55
2023/05/06 04:17:45;;;;;;;30.62;16.05;;;7.40;99.90;;;;;;7306454;32;20280;-55
2023/05/06 04:21:47;;;;;;;27.70;14.80;;;7.40;99.90;;;;;;7309286;32;20139;-54
2023/05/06 04:25:48;;;;;;;29.30;14.95;;;7.40;99.90;;;;;;7308041;32;20132;-55
2023/05/06 04:29:50;;;;;;;30.42;15.93;;;7.40;99.90;;;;;;7309646;32;20712;-54
2023/05/06 04:33:52;;;;;;;25.35;14.90;;;7.50;99.90;;;;;;7310498;32;20210;-55
2023/05/06 04:37:55;;;;;;;28.60;15.75;;;7.50;99.90;;;;;;7296608;32;20095;-57
2023/05/06 04:41:57;;;;;;;30.48;15.02;;;7.50;99.90;;;;;;7302925;32;20190;-55
2023/05/06 04:45:59;;;;;;;26.55;15.40;;;7.70;99.90;;;;;;7304319;32;20179;-56
2023/05/06 04:50:01;;;;;;;22.20;14.48;;;7.90;99.90;;;;;;7304276;32;20112;-55
2023/05/06 04:54:02;;;;;;;23.40;14.93;;;8.30;99.90;;;;;;7303541;32;20643;-55
2023/05/06 04:58:04;;;;;;;22.67;14.05;;;8.70;99.90;;;;;;7301438;32;20542;-57
2023/05/06 05:02:06;;;;;;;17.42;11.55;;;9.00;99.90;;;;;;7300092;32;20136;-56
2023/05/06 05:06:08;;;;;;;18.75;12.73;;;9.30;99.90;;;;;;7300056;32;20180;-56
2023/05/06 05:10:10;;;;;;;19.60;12.05;;;9.30;99.90;;;;;;7301206;32;20252;-56
2023/05/06 05:14:12;;;;;;;19.35;13.05;;;9.20;99.90;;;;;;7292152;32;20358;-56
2023/05/06 05:18:14;;;;;;;17.40;12.43;;;9.20;99.90;;;;;;7301288;32;20202;-55
2023/05/06 05:22:16;;;;;;;22.00;12.60;;;9.20;99.90;;;;;;7304440;32;20422;-56
2023/05/06 05:26:17;;;;;;;19.58;13.35;;;9.20;99.90;;;;;;7299032;32;20320;-56
2023/05/06 05:30:19;;;;;;;25.65;14.35;;;9.20;99.90;;;;;;7300459;32;20229;-55
2023/05/06 05:34:21;;;;;;;27.25;15.52;;;9.40;99.90;;;;;;7314333;32;20123;-56
2023/05/06 05:38:23;;;;;;;25.92;17.73;;;9.50;99.90;;;;;;7307508;32;20130;-58
2023/05/06 05:42:25;;;;;;;36.08;23.05;;;9.70;99.90;;;;;;7300231;32;20114;-55
2023/05/06 05:46:26;;;;;;;39.45;26.50;;;9.90;99.90;;;;;;7317008;32;20120;-55
2023/05/06 05:50:28;;;;;;;39.33;25.60;;;10.10;99.90;;;;;;7308360;32;20656;-54
2023/05/06 05:54:30;;;;;;;40.50;25.50;;;10.40;99.90;;;;;;7300290;32;20270;-54
2023/05/06 05:58:32;;;;;;;41.35;26.05;;;10.70;99.90;;;;;;7306684;32;20174;-54
2023/05/06 06:02:33;;;;;;;40.83;26.77;;;10.90;99.90;;;;;;7302758;32;20114;-56
2023/05/06 06:06:35;;;;;;;39.33;26.48;;;11.10;99.90;;;;;;7304967;32;20539;-56
2023/05/06 06:10:37;;;;;;;37.53;25.48;;;11.30;99.90;;;;;;7300466;32;20889;-54
2023/05/06 06:14:39;;;;;;;36.10;24.55;;;11.50;99.90;;;;;;7306085;32;20115;-56
2023/05/06 06:18:40;;;;;;;35.53;24.65;;;11.70;99.90;;;;;;7297109;32;20253;-55
2023/05/06 06:22:42;;;;;;;35.30;24.63;;;11.80;99.90;;;;;;7301921;32;20117;-54
2023/05/06 06:26:44;;;;;;;28.65;22.02;;;11.90;99.90;;;;;;7304416;32;21004;-56
2023/05/06 06:30:45;;;;;;;28.23;22.17;;;12.00;99.90;;;;;;7299666;32;20099;-56
2023/05/06 06:34:47;;;;;;;29.37;21.83;;;12.00;99.90;;;;;;7306311;32;21727;-55
2023/05/06 06:38:49;;;;;;;26.15;20.55;;;12.20;99.90;;;;;;7310546;32;20095;-56
2023/05/06 06:42:51;;;;;;;23.15;18.70;;;12.60;99.90;;;;;;7308593;32;20198;-56
2023/05/06 06:46:53;;;;;;;22.90;17.87;;;12.80;99.90;;;;;;7310205;32;20115;-57
2023/05/06 06:50:54;;;;;;;17.23;14.87;;;13.20;99.90;;;;;;7301982;32;20714;-56
2023/05/06 06:54:56;;;;;;;15.77;13.52;;;13.80;99.90;;;;;;7302743;32;20211;-60
2023/05/06 06:58:58;;;;;;;13.57;12.23;;;14.40;99.90;;;;;;7302780;32;20126;-57
2023/05/06 07:02:59;;;;;;;13.23;11.32;;;14.80;99.90;;;;;;7301135;32;20210;-57
2023/05/06 07:07:01;;;;;;;16.35;12.20;;;14.80;99.90;;;;;;7298403;32;20931;-56
2023/05/06 07:11:03;;;;;;;12.70;11.12;;;15.50;99.90;;;;;;7309641;32;20119;-56
2023/05/06 07:15:18;;;;;;;11.25;9.75;;;15.90;99.90;;;;;;7304539;32;20095;-56
2023/05/06 07:19:20;;;;;;;10.88;8.85;;;15.90;99.90;;;;;;7304425;32;20182;-56
2023/05/06 07:23:21;;;;;;;12.18;8.88;;;15.80;99.90;;;;;;7308283;32;20142;-56
2023/05/06 07:27:23;;;;;;;9.15;8.18;;;16.40;99.90;;;;;;7312633;32;20600;-57
2023/05/06 07:31:25;;;;;;;6.82;6.00;;;17.00;99.90;;;;;;7303104;32;20125;-57
2023/05/06 07:35:27;;;;;;;8.57;6.00;;;17.30;99.90;;;;;;7309669;32;20170;-56
2023/05/06 07:39:29;;;;;;;7.32;5.37;;;17.20;99.90;;;;;;7297824;32;20180;-56
2023/05/06 07:43:31;;;;;;;5.87;3.75;;;16.90;99.90;;;;;;7302753;32;20096;-56
2023/05/06 07:47:34;;;;;;;7.78;4.70;;;16.40;99.90;;;;;;7306808;32;20191;-56
2023/05/06 07:51:36;;;;;;;8.02;4.93;;;16.00;99.90;;;;;;7307927;32;20111;-56
2023/05/06 07:55:37;;;;;;;6.82;5.20;;;15.70;99.90;;;;;;7304624;32;20127;-56
2023/05/06 07:59:39;;;;;;;9.27;5.90;;;15.60;99.90;;;;;;7297486;32;20149;-55
2023/05/06 08:03:41;;;;;;;5.50;4.28;;;15.50;99.90;;;;;;7301132;32;20521;-56
2023/05/06 08:07:43;;;;;;;7.82;4.50;;;15.60;99.90;;;;;;7313029;32;20227;-61
2023/05/06 08:11:45;;;;;;;9.35;6.62;;;15.70;99.90;;;;;;7303115;32;20707;-62
2023/05/06 08:15:46;;;;;;;7.05;5.37;;;15.60;99.90;;;;;;7312146;32;20122;-63
2023/05/06 08:19:48;;;;;;;6.25;5.10;;;15.90;99.90;;;;;;7300626;32;20539;-56
2023/05/06 08:23:50;;;;;;;5.87;4.65;;;16.30;99.90;;;;;;7310902;32;20194;-55
2023/05/06 08:27:52;;;;;;;7.93;4.45;;;16.70;99.90;;;;;;7309555;32;20208;-56
2023/05/06 08:31:53;;;;;;;3.80;2.83;;;17.00;99.90;;;;;;7307580;32;20215;-57
2023/05/06 08:35:57;;;;;;;4.53;2.85;;;17.40;99.90;;;;;;7312142;32;20162;-56
2023/05/06 08:39:59;;;;;;;3.90;2.90;;;18.10;99.90;;;;;;7311555;32;20190;-56
2023/05/06 08:44:03;;;;;;;4.85;3.12;;;19.20;99.90;;;;;;7302366;32;20230;-56
2023/05/06 08:48:05;;;;;;;5.22;2.90;;;20.30;99.90;;;;;;7304004;32;20321;-57
2023/05/06 08:52:07;;;;;;;3.42;2.75;;;21.00;99.90;;;;;;7298113;32;20637;-57
2023/05/06 08:56:12;;;;;;;3.58;3.08;;;21.70;99.90;;;;;;7303966;32;20513;-57
2023/05/06 09:00:14;;;;;;;4.15;2.58;;;22.50;99.90;;;;;;7296674;32;20715;-57
2023/05/06 09:04:17;;;;;;;4.32;2.20;;;22.90;99.90;;;;;;7307225;32;20499;-56
2023/05/06 09:08:19;;;;;;;3.00;2.40;;;23.80;99.90;;;;;;7307536;32;20222;-57
2023/05/06 09:12:23;;;;;;;5.82;2.22;;;23.40;99.90;;;;;;7308057;32;20270;-56
2023/05/06 09:16:27;;;;;;;7.68;2.87;;;22.90;99.90;;;;;;7302384;32;20698;-57
2023/05/06 09:20:35;;;;;;;3.10;1.92;;;22.90;99.90;;;;;;7299758;32;20238;-56
2023/05/06 09:24:36;;;;;;;4.25;1.87;;;23.20;99.90;;;;;;7311952;32;20103;-58
2023/05/06 09:28:43;;;;;;;3.33;2.03;;;22.90;99.90;;;;;;7307612;32;20123;-57
2023/05/06 09:32:48;;;;;;;2.65;1.83;;;22.80;99.90;;;;;;7302095;32;20162;-57
2023/05/06 09:36:52;;;;;;;3.42;2.50;;;22.80;99.90;;;;;;7304323;32;20210;-57
2023/05/06 09:40:54;;;;;;;6.10;3.08;;;22.90;99.90;;;;;;7300072;32;20151;-57
2023/05/06 09:44:58;;;;;;;3.28;2.55;;;22.70;99.90;;;;;;7317727;32;20130;-56
2023/05/06 09:49:02;;;;;;;4.53;2.12;;;22.60;99.90;;;;;;7311924;32;20263;-56
2023/05/06 09:53:05;;;;;;;3.28;2.10;;;23.00;99.90;;;;;;7306168;32;20108;-56
2023/05/06 09:57:09;;;;;;;3.72;2.30;;;23.30;99.90;;;;;;7308195;32;20755;-57
2023/05/06 10:01:12;;;;;;;4.72;2.83;;;24.00;99.90;;;;;;7308818;32;20118;-58
2023/05/06 10:05:17;;;;;;;;;;;24.00;99.90;;;;;;7310588;32;20103;-56
2023/05/06 10:09:23;;;;;;;5.45;2.95;;;24.10;99.90;;;;;;7306042;32;20081;-56
2023/05/06 10:13:25;;;;;;;3.97;2.72;;;24.10;99.90;;;;;;7308178;32;20112;-56
2023/05/06 10:17:29;;;;;;;3.08;2.50;;;23.80;99.90;;;;;;7303338;32;20555;-56
2023/05/06 10:21:34;;;;;;;5.80;2.03;;;23.60;99.90;;;;;;7301038;32;20138;-56
2023/05/06 10:25:38;;;;;;;4.07;2.33;;;23.60;99.90;;;;;;7311261;32;20110;-57
2023/05/06 10:29:42;;;;;;;3.50;1.80;;;23.00;99.90;;;;;;7306374;32;20104;-56
2023/05/06 10:33:47;;;;;;;5.00;2.85;;;22.70;99.90;;;;;;7306099;32;20593;-57
2023/05/06 10:37:50;;;;;;;4.57;2.42;;;22.50;99.90;;;;;;7303582;32;20170;-57
2023/05/06 10:41:52;;;;;;;4.55;1.80;;;22.70;99.90;;;;;;7307186;32;20194;-57
2023/05/06 10:46:01;;;;;;;3.65;2.03;;;23.10;99.90;;;;;;7300999;32;20130;-58
2023/05/06 10:50:23;;;;;;;3.35;1.87;;;23.50;99.90;;;;;;7304929;32;20711;-57
2023/05/06 10:54:25;;;;;;;4.28;2.30;;;23.40;99.90;;;;;;7307706;32;20100;-57
2023/05/06 10:58:26;;;;;;;4.55;1.85;;;23.50;99.90;;;;;;7303435;32;20178;-58
2023/05/06 11:02:29;;;;;;;2.37;1.65;;;22.90;99.90;;;;;;7304205;32;20091;-57
2023/05/06 11:06:33;;;;;;;2.35;1.30;;;23.60;99.90;;;;;;7303106;32;20104;-56
2023/05/06 11:10:35;;;;;;;5.03;2.08;;;23.20;99.90;;;;;;7302591;32;20110;-55
2023/05/06 11:14:38;;;;;;;4.43;1.50;;;22.70;99.90;;;;;;7317462;32;20103;-55
2023/05/06 11:18:41;;;;;;;4.55;1.75;;;22.50;99.90;;;;;;7307597;32;20150;-55
2023/05/06 11:22:42;;;;;;;4.43;1.52;;;23.00;99.90;;;;;;7307094;32;20486;-56
2023/05/06 11:26:46;;;;;;;2.10;1.02;;;23.20;99.90;;;;;;7308830;32;20099;-56
2023/05/06 11:30:53;;;;;;;2.37;1.30;;;24.10;99.90;;;;;;7307071;32;20100;-56
2023/05/06 11:34:55;;;;;;;4.53;1.33;;;23.90;99.90;;;;;;7310268;32;20115;-55
2023/05/06 11:39:04;;;;;;;2.92;1.52;;;24.00;99.90;;;;;;7320855;32;20187;-55
2023/05/06 11:43:13;;;;;;;4.28;1.42;;;23.60;99.90;;;;;;7303920;32;20121;-57
2023/05/06 11:47:15;;;;;;;3.05;1.10;;;22.80;99.90;;;;;;7306640;32;20135;-56
2023/05/06 11:51:22;;;;;;;4.65;1.30;;;23.20;99.90;;;;;;7307955;32;20129;-55
2023/05/06 11:55:24;;;;;;;2.72;1.08;;;24.70;99.90;;;;;;7311806;32;20421;-57
2023/05/06 11:59:37;;;;;;;3.28;0.93;;;25.90;96.20;;;;;;7308047;32;20116;-57
2023/05/06 12:03:39;;;;;;;3.62;1.12;;;26.70;95.90;;;;;;7307595;32;20510;-55
2023/05/06 12:07:42;;;;;;;2.40;0.90;;;26.60;92.80;;;;;;7306369;32;20163;-58
2023/05/06 12:11:44;;;;;;;2.05;0.98;;;26.10;93.20;;;;;;7302661;32;20089;-57
2023/05/06 12:15:48;;;;;;;2.80;1.23;;;26.40;91.30;;;;;;7300056;32;20147;-58
2023/05/06 12:19:50;;;;;;;2.00;0.75;;;26.70;85.30;;;;;;7302838;32;20130;-57
2023/05/06 12:23:58;;;;;;;4.80;1.15;;;27.30;84.70;;;;;;7307075;32;20254;-58
2023/05/06 12:27:59;;;;;;;2.30;0.90;;;27.20;80.40;;;;;;7298823;32;20551;-58
2023/05/06 12:32:09;;;;;;;2.58;1.00;;;27.10;80.60;;;;;;7300136;32;20187;-55
2023/05/06 12:36:11;;;;;;;3.15;1.00;;;26.90;81.40;;;;;;7302775;32;20103;-61
2023/05/06 12:40:16;;;;;;;2.97;1.02;;;27.20;88.50;;;;;;7302721;32;20271;-60
2023/05/06 12:44:37;;;;;;;4.03;0.65;;;26.60;77.60;;;;;;7307398;32;20125;-59
2023/05/06 12:48:54;;;;;;;2.85;0.90;;;25.80;81.40;;;;;;7309033;32;20131;-60
2023/05/06 12:52:56;;;;;;;4.75;0.80;;;25.70;82.70;;;;;;7302732;32;20126;-60
2023/05/06 12:56:58;;;;;;;1.87;0.65;;;25.70;80.50;;;;;;7296998;32;20125;-58
2023/05/06 13:00:59;;;;;;;2.72;1.08;;;25.80;86.00;;;;;;7298860;32;20178;-57
2023/05/06 13:05:01;;;;;;;4.35;0.85;;;25.60;82.70;;;;;;7305825;32;20122;-57
2023/05/06 13:09:03;;;;;;;2.47;0.80;;;25.20;81.30;;;;;;7303521;32;20104;-58
2023/05/06 13:13:05;;;;;;;3.17;0.80;;;25.20;83.80;;;;;;7298845;32;20201;-57
2023/05/06 13:17:07;;;;;;;2.05;0.82;;;24.80;85.20;;;;;;7297086;32;20104;-57
2023/05/06 13:21:09;;;;;;;3.12;0.82;;;24.20;87.60;;;;;;7298315;32;20181;-57
2023/05/06 13:25:12;;;;;;;3.42;0.70;;;24.10;86.00;;;;;;7296097;32;20677;-57
2023/05/06 13:29:15;;;;;;;4.78;1.15;;;24.10;84.90;;;;;;7298317;32;20751;-58
2023/05/06 13:33:16;;;;;;;2.62;0.93;;;24.10;85.30;;;;;;7297886;32;20824;-57
2023/05/06 13:37:18;;;;;;;2.15;0.80;;;24.00;83.70;;;;;;7294384;32;20225;-57
2023/05/06 13:41:21;;;;;;;3.97;0.80;;;24.10;86.30;;;;;;7302802;32;20170;-57
2023/05/06 13:45:23;;;;;;;3.62;0.90;;;24.20;85.60;;;;;;7312293;32;20183;-57
2023/05/06 13:49:25;;;;;;;2.62;0.93;;;24.20;84.70;;;;;;7302763;32;20179;-57
2023/05/06 13:53:27;;;;;;;4.93;1.17;;;23.80;92.10;;;;;;7301707;32;20103;-58
2023/05/06 13:57:28;;;;;;;5.37;1.23;;;23.40;91.40;;;;;;7318956;32;20114;-57
2023/05/06 14:01:30;;;;;;;2.45;0.95;;;23.10;90.70;;;;;;7303034;32;20096;-57
2023/05/06 14:05:32;;;;;;;2.65;0.80;;;22.50;92.00;;;;;;7309177;32;20811;-56
2023/05/06 14:09:34;;;;;;;4.37;1.00;;;22.20;96.10;;;;;;7303378;32;20092;-57
2023/05/06 14:13:36;;;;;;;2.67;1.00;;;22.00;92.80;;;;;;7317280;32;20593;-57
2023/05/06 14:17:38;;;;;;;4.62;1.33;;;21.70;92.90;;;;;;7304306;32;20112;-57
2023/05/06 14:21:40;;;;;;;2.80;1.00;;;21.60;93.10;;;;;;7314265;32;20127;-57
2023/05/06 14:25:41;;;;;;;3.80;0.90;;;21.40;96.80;;;;;;7314317;32;20245;-57
2023/05/06 14:29:44;;;;;;;2.53;0.70;;;21.30;97.70;;;;;;7307369;32;20222;-57
2023/05/06 14:33:46;;;;;;;3.35;1.25;;;21.00;99.90;;;;;;7315186;32;20126;-57
2023/05/06 14:37:48;;;;;;;2.92;1.00;;;20.90;98.30;;;;;;7316707;32;20153;-56
2023/05/06 14:41:50;;;;;;;3.05;0.90;;;20.60;99.90;;;;;;7303563;32;20640;-57
2023/05/06 14:45:51;;;;;;;3.25;1.00;;;20.50;99.90;;;;;;7308489;32;20434;-57
2023/05/06 14:49:53;;;;;;;3.30;1.00;;;20.20;99.90;;;;;;7312084;32;20202;-59
2023/05/06 14:53:55;;;;;;;2.15;0.90;;;19.90;99.90;;;;;;7316029;32;20754;-59
2023/05/06 14:57:57;;;;;;;3.92;0.90;;;19.70;99.90;;;;;;7310382;32;20237;-55
2023/05/06 15:01:59;;;;;;;2.35;0.90;;;19.30;99.90;;;;;;7310519;32;20150;-57
2023/05/06 15:06:00;;;;;;;4.87;1.23;;;19.10;99.90;;;;;;7323170;32;20112;-57
2023/05/06 15:10:03;;;;;;;3.08;0.85;;;18.90;99.90;;;;;;7313019;32;20222;-57
2023/05/06 15:14:04;;;;;;;5.12;1.37;;;18.70;99.90;;;;;;7315833;32;20126;-58
2023/05/06 15:18:06;;;;;;;4.20;1.15;;;18.40;99.90;;;;;;7314800;32;20163;-57
2023/05/06 15:22:08;;;;;;;2.83;1.30;;;18.30;99.90;;;;;;7305442;32;20257;-56
2023/05/06 15:26:10;;;;;;;6.35;1.30;;;18.30;99.90;;;;;;7306415;32;20675;-56
2023/05/06 15:30:12;;;;;;;5.68;1.00;;;18.00;99.90;;;;;;7302729;32;20218;-56
2023/05/06 15:34:15;;;;;;;2.78;0.80;;;17.60;99.90;;;;;;7305913;32;20228;-56
2023/05/06 15:38:16;;;;;;;2.47;0.90;;;17.20;99.90;;;;;;7309625;32;20499;-56
2023/05/06 15:42:18;;;;;;;3.25;0.90;;;17.10;99.90;;;;;;7305596;32;20187;-56
2023/05/06 15:46:20;;;;;;;2.83;0.70;;;17.10;99.90;;;;;;7305745;32;20091;-56
2023/05/06 15:50:22;;;;;;;2.30;0.70;;;16.90;99.90;;;;;;7314743;32;20103;-56
2023/05/06 15:54:37;;;;;;;1.30;0.88;;;16.80;99.90;;;;;;7312338;32;20139;-56
2023/05/06 15:58:41;;;;;;;2.42;1.12;;;16.70;99.90;;;;;;7306377;32;20200;-56
2023/05/06 16:02:42;;;;;;;3.00;1.35;;;16.60;99.90;;;;;;7302638;32;20652;-57
2023/05/06 16:06:44;;;;;;;4.25;1.37;;;16.60;99.90;;;;;;7307977;32;20092;-57
2023/05/06 16:10:46;;;;;;;5.32;1.45;;;16.50;99.90;;;;;;7309423;32;20183;-57
2023/05/06 16:14:48;;;;;;;5.25;1.90;;;16.50;99.90;;;;;;7306467;32;20251;-57
2023/05/06 16:18:49;;;;;;;3.37;1.90;;;16.50;99.90;;;;;;7310933;32;20213;-56
2023/05/06 16:22:51;;;;;;;2.60;1.83;;;16.50;99.90;;;;;;7306388;32;20315;-57
2023/05/06 16:26:54;;;;;;;2.80;1.50;;;16.50;99.90;;;;;;7302465;32;20163;-56
2023/05/06 16:30:56;;;;;;;2.53;1.33;;;16.50;99.90;;;;;;7309557;32;20516;-57
2023/05/06 16:34:58;;;;;;;2.35;1.20;;;16.30;99.90;;;;;;7310210;32;20682;-56
2023/05/06 16:39:00;;;;;;;6.25;1.50;;;16.30;99.90;;;;;;7313300;32;20145;-58
2023/05/06 16:43:01;;;;;;;3.10;1.30;;;16.30;99.90;;;;;;7310889;32;20195;-56
2023/05/06 16:47:03;;;;;;;3.37;1.42;;;16.20;99.90;;;;;;7299046;32;20187;-57
2023/05/06 16:51:05;;;;;;;3.72;1.40;;;16.10;99.90;;;;;;7295475;32;20221;-56
2023/05/06 16:55:07;;;;;;;3.22;1.40;;;16.10;99.90;;;;;;7305613;32;20270;-56
2023/05/06 16:59:09;;;;;;;1.87;1.33;;;16.00;99.90;;;;;;7302167;32;20266;-56
2023/05/06 17:03:11;;;;;;;2.67;1.35;;;15.90;99.90;;;;;;7309052;32;20779;-57
2023/05/06 17:07:12;;;;;;;3.92;1.30;;;15.80;99.90;;;;;;7301984;32;20272;-57
2023/05/06 17:11:14;;;;;;;4.57;1.85;;;15.80;99.90;;;;;;7303254;32;20309;-57
2023/05/06 17:15:16;;;;;;;4.80;1.80;;;15.90;99.90;;;;;;7308947;32;20131;-57
2023/05/06 17:19:17;;;;;;;4.12;2.75;;;15.90;99.90;;;;;;7298532;32;20483;-58
2023/05/06 17:23:19;;;;;;;2.22;1.62;;;15.80;99.90;;;;;;7304435;32;20173;-56
2023/05/06 17:27:21;;;;;;;4.43;1.37;;;15.80;99.90;;;;;;7308609;32;20153;-57
2023/05/06 17:31:22;;;;;;;2.65;0.98;;;15.80;99.90;;;;;;7297822;32;20231;-55
2023/05/06 17:35:25;;;;;;;2.60;1.08;;;15.70;99.90;;;;;;7301453;32;20680;-56
2023/05/06 17:39:26;;;;;;;1.42;1.02;;;15.70;99.90;;;;;;7310237;32;20179;-55
2023/05/06 17:43:28;;;;;;;5.15;1.35;;;15.60;99.90;;;;;;7302064;32;20236;-56
2023/05/06 17:47:30;;;;;;;4.03;1.73;;;15.60;99.90;;;;;;7305567;32;20226;-57
2023/05/06 17:51:32;;;;;;;4.18;1.30;;;15.50;99.90;;;;;;7298590;32;20488;-58
2023/05/06 17:55:33;;;;;;;4.65;1.42;;;15.50;99.90;;;;;;7297063;32;20125;-58
2023/05/06 17:59:35;;;;;;;3.47;1.10;;;15.40;99.90;;;;;;7301182;32;20115;-56
2023/05/06 18:03:38;;;;;;;1.95;1.12;;;15.40;99.90;;;;;;7307036;32;20157;-57
2023/05/06 18:07:41;;;;;;;2.97;1.17;;;15.40;99.90;;;;;;7310375;32;20135;-56
2023/05/06 18:11:43;;;;;;;5.85;1.50;;;15.30;99.90;;;;;;7301117;32;20164;-57
2023/05/06 18:15:44;;;;;;;2.10;1.08;;;15.20;99.90;;;;;;7306073;32;20217;-57
2023/05/06 18:19:46;;;;;;;3.80;1.02;;;15.20;99.90;;;;;;7298591;32;20119;-56
2023/05/06 18:23:48;;;;;;;2.95;1.20;;;15.20;99.90;;;;;;7299664;32;20202;-57
2023/05/06 18:27:54;;;;;;;3.33;1.30;;;15.20;99.90;;;;;;7302467;32;20140;-56
2023/05/06 18:31:56;;;;;;;3.35;1.35;;;15.10;99.90;;;;;;7301716;32;20131;-56
2023/05/06 18:35:58;;;;;;;1.87;1.23;;;15.10;99.90;;;;;;7303452;32;20123;-56
2023/05/06 18:39:59;;;;;;;3.40;1.40;;;15.00;99.90;;;;;;7307112;32;20107;-56
2023/05/06 18:44:03;;;;;;;2.97;1.33;;;15.00;99.90;;;;;;7315695;32;20435;-57
2023/05/06 18:48:04;;;;;;;1.85;1.00;;;14.90;99.90;;;;;;7317196;32;20198;-57
2023/05/06 18:52:06;;;;;;;3.67;1.40;;;14.90;99.90;;;;;;7303088;32;20215;-57
2023/05/06 18:56:08;;;;;;;4.37;1.67;;;14.80;99.90;;;;;;7310089;32;20246;-57
2023/05/06 19:00:12;;;;;;;2.12;1.33;;;14.80;99.90;;;;;;7313788;32;20099;-56
2023/05/06 19:04:14;;;;;;;2.97;1.15;;;14.80;99.90;;;;;;7304230;32;20099;-56
2023/05/06 19:08:16;;;;;;;3.33;1.70;;;14.70;99.90;;;;;;7308888;32;20140;-57
2023/05/06 19:12:17;;;;;;;5.95;1.70;;;14.70;99.90;;;;;;7305246;32;20175;-56
2023/05/06 19:16:19;;;;;;;6.22;1.77;;;14.60;99.90;;;;;;7301878;32;20115;-56
2023/05/06 19:20:21;;;;;;;3.50;1.42;;;14.50;99.90;;;;;;7304187;32;20129;-55
2023/05/06 19:24:22;;;;;;;6.25;1.87;;;14.40;99.90;;;;;;7308630;32;20096;-56
2023/05/06 19:28:24;;;;;;;4.68;1.92;;;14.30;99.90;;;;;;7301853;32;20313;-56
2023/05/06 19:32:26;;;;;;;4.55;2.12;;;14.30;99.90;;;;;;7314076;32;20214;-57
2023/05/06 19:36:27;;;;;;;4.97;2.45;;;14.30;99.90;;;;;;7308743;32;20204;-56
2023/05/06 19:40:29;;;;;;;7.53;3.95;;;14.30;99.90;;;;;;7314461;32;20146;-56
2023/05/06 19:44:34;;;;;;;4.75;2.47;;;14.20;99.90;;;;;;7312620;32;20192;-55
2023/05/06 19:48:37;;;;;;;6.15;2.72;;;14.20;99.90;;;;;;7304940;32;20178;-56
2023/05/06 19:52:39;;;;;;;4.78;2.78;;;14.20;99.90;;;;;;7305777;32;20112;-56
2023/05/06 19:56:42;;;;;;;4.25;3.30;;;14.20;99.90;;;;;;7310128;32;20135;-58
2023/05/06 20:00:44;;;;;;;6.82;3.05;;;14.20;99.90;;;;;;7307228;32;20264;-56
2023/05/06 20:04:46;;;;;;;3.37;2.50;;;14.20;99.90;;;;;;7317519;32;20128;-56
2023/05/06 20:08:47;;;;;;;5.37;3.15;;;14.20;99.90;;;;;;7313162;32;20134;-56
2023/05/06 20:12:49;;;;;;;5.03;2.85;;;14.20;99.90;;;;;;7311529;32;20125;-56
2023/05/06 20:16:51;;;;;;;4.22;2.67;;;14.20;99.90;;;;;;7300378;32;20230;-56
2023/05/06 20:20:53;;;;;;;3.67;2.75;;;14.20;99.90;;;;;;7301615;32;20107;-56
2023/05/06 20:25:14;;;;;;;7.22;2.05;;;14.10;99.90;;;;;;7300250;32;20390;-56
2023/05/06 20:29:16;;;;;;;6.85;2.72;;;14.10;99.90;;;;;;7308456;32;20168;-56
2023/05/06 20:33:18;;;;;;;3.42;2.40;;;14.10;99.90;;;;;;7314043;32;20100;-57
2023/05/06 20:37:20;;;;;;;3.90;2.40;;;14.00;99.90;;;;;;7307801;32;20129;-56
2023/05/06 20:41:21;;;;;;;5.25;2.15;;;14.10;99.90;;;;;;7303958;32;20442;-56
2023/05/06 20:45:23;;;;;;;6.22;2.60;;;14.10;99.90;;;;;;7311999;32;20118;-57
2023/05/06 20:49:25;;;;;;;5.15;2.50;;;14.00;99.90;;;;;;7306109;32;20119;-57
2023/05/06 20:53:26;;;;;;;4.60;2.20;;;14.00;99.90;;;;;;7321917;32;20256;-56
2023/05/06 20:57:28;;;;;;;7.70;2.45;;;14.10;99.90;;;;;;7306989;32;20403;-56